La Pointe, Wisconsin
Current Conditions -  °F | °C
As of 3:53 AM on Monday 26 Jan 2015 (Local Time) from KASX Reporting Station
Overcast Overcast  
Wind Chill:   Ceiling: 5000
Heat Index: 20°   Visibility: 10mi
Dew Point: 10°   Wind: 9mph
Humidity: 65%   Direction: 200°SSW
Pressure: 29.84"   Gusts: NA
Location:  46.78°N, 90.79°W
Report Text: KASX 260953Z AUTO 20008KT 10SM BKN050 OVC075 M07/M12 A2984 RMK AO2 SLP119 T10671122
Loading
Personal Weather Stations






























Interactive Weather Map New forecast layout! Learn more

10-Day Weather Forecast

Advertisements
Track Severe Weather on mobile